Time;durP1;ratioP1;P1;durP2;ratioP2;P2;SDS_P1;SDS_P2;PMS_P1;PMS_P2;Temp;Humidity;BMP_temperature;BMP_pressure;BME280_temperature;BME280_humidity;BME280_pressure;Samples;Min_cycle;Max_cycle;Signal;HPM_P1;HPM_P2
2023/07/10 00:00:55;;;;;;;5.40;2.75;;;27.40;90.00;;;;;;7387318;19;20153;-77
2023/07/10 00:03:21;;;;;;;5.57;2.70;;;27.20;90.10;;;;;;7383124;19;20135;-77
2023/07/10 00:05:46;;;;;;;4.10;3.00;;;27.20;90.40;;;;;;7379138;19;20155;-77
2023/07/10 00:08:12;;;;;;;4.63;3.20;;;27.20;90.60;;;;;;7384862;19;20154;-77
2023/07/10 00:10:38;;;;;;;3.70;3.10;;;27.20;90.60;;;;;;7386313;19;20165;-78
2023/07/10 00:13:04;;;;;;;5.70;2.80;;;27.20;90.70;;;;;;7384623;19;20542;-78
2023/07/10 00:15:30;;;;;;;4.50;2.75;;;27.20;90.90;;;;;;7385683;19;20269;-78
2023/07/10 00:17:56;;;;;;;3.85;2.40;;;27.20;90.70;;;;;;7383810;19;20162;-77
2023/07/10 00:20:26;;;;;;;3.92;2.80;;;27.30;90.70;;;;;;7385455;19;20131;-77
2023/07/10 00:22:51;;;;;;;7.00;3.15;;;27.30;90.70;;;;;;7380353;19;20139;-78
2023/07/10 00:25:18;;;;;;;4.32;2.78;;;27.30;90.70;;;;;;7385335;19;20160;-78
2023/07/10 00:27:48;;;;;;;4.18;3.00;;;27.30;90.60;;;;;;7384836;19;20155;-79
2023/07/10 00:30:25;;;;;;;7.38;3.40;;;27.40;90.90;;;;;;7383543;19;20143;-78
2023/07/10 00:32:53;;;;;;;5.03;3.13;;;27.30;91.50;;;;;;7386347;19;20149;-77
2023/07/10 00:35:24;;;;;;;3.90;3.00;;;27.20;91.10;;;;;;7383240;19;20151;-77
2023/07/10 00:38:03;;;;;;;4.45;3.05;;;27.00;91.40;;;;;;7382432;19;20153;-78
2023/07/10 00:40:34;;;;;;;3.40;2.58;;;26.90;91.70;;;;;;7385743;19;20134;-78
2023/07/10 00:43:26;;;;;;;3.83;3.00;;;26.80;91.90;;;;;;7382607;19;20131;-78
2023/07/10 00:45:53;;;;;;;4.60;2.65;;;26.80;91.90;;;;;;7381018;19;20155;-77
2023/07/10 00:48:33;;;;;;;4.03;2.90;;;26.90;91.90;;;;;;7384706;19;20151;-77
2023/07/10 00:51:05;;;;;;;7.85;2.80;;;26.70;92.10;;;;;;7387947;19;21241;-77
2023/07/10 00:53:34;;;;;;;3.47;2.65;;;26.70;92.20;;;;;;7393824;19;20454;-78
2023/07/10 00:56:01;;;;;;;3.38;2.70;;;26.80;92.00;;;;;;7387498;19;20671;-78
2023/07/10 00:58:37;;;;;;;3.35;2.90;;;26.90;92.10;;;;;;7391202;19;20155;-78
2023/07/10 01:01:09;;;;;;;3.90;2.63;;;26.90;92.00;;;;;;7391715;19;20130;-77
2023/07/10 01:03:37;;;;;;;5.20;3.25;;;26.90;92.10;;;;;;7391321;19;20142;-78
2023/07/10 01:06:11;;;;;;;5.72;2.70;;;26.90;92.30;;;;;;7390772;19;20499;-77
2023/07/10 01:08:42;;;;;;;5.10;2.45;;;26.70;92.40;;;;;;7388608;19;20150;-77
2023/07/10 01:11:07;;;;;;;3.63;2.75;;;26.70;92.60;;;;;;7389277;19;20158;-78
2023/07/10 01:13:37;;;;;;;4.72;2.88;;;26.50;93.00;;;;;;7389678;19;20611;-78
2023/07/10 01:16:03;;;;;;;3.45;2.67;;;26.20;93.40;;;;;;7389379;19;20172;-79
2023/07/10 01:18:29;;;;;;;5.10;2.85;;;26.20;93.60;;;;;;7388046;19;20143;-78
2023/07/10 01:21:23;;;;;;;3.60;2.85;;;26.40;93.40;;;;;;7389801;19;20153;-78
2023/07/10 01:23:49;;;;;;;6.15;3.10;;;26.50;93.60;;;;;;7389035;19;20637;-78
2023/07/10 01:26:15;;;;;;;4.07;2.75;;;26.60;93.30;;;;;;7387611;19;20550;-78
2023/07/10 01:28:41;;;;;;;3.17;2.60;;;26.70;93.00;;;;;;7389563;19;20226;-78
2023/07/10 01:31:10;;;;;;;4.30;2.53;;;26.60;92.80;;;;;;7388789;19;20611;-78
2023/07/10 01:33:43;;;;;;;3.22;2.67;;;26.60;92.90;;;;;;7389007;19;20135;-77
2023/07/10 01:36:12;;;;;;;3.67;2.85;;;26.70;92.80;;;;;;7387421;19;20135;-77
2023/07/10 01:38:47;;;;;;;4.50;3.10;;;26.70;93.10;;;;;;7388569;19;20154;-78
2023/07/10 01:41:36;;;;;;;4.85;3.08;;;26.70;93.10;;;;;;7389461;19;20174;-78
2023/07/10 01:44:23;;;;;;;5.78;3.22;;;26.60;93.30;;;;;;7388588;19;20165;-77
2023/07/10 01:46:49;;;;;;;4.30;3.03;;;26.60;93.70;;;;;;7388923;19;20508;-77
2023/07/10 01:49:17;;;;;;;3.85;2.95;;;26.60;93.80;;;;;;7387517;19;20141;-78
2023/07/10 01:51:44;;;;;;;4.43;2.80;;;26.70;94.00;;;;;;7390579;19;20489;-77
2023/07/10 01:54:17;;;;;;;4.80;2.60;;;26.70;94.00;;;;;;7387572;19;20242;-78
2023/07/10 01:56:43;;;;;;;4.95;2.80;;;26.70;94.20;;;;;;7387408;19;20154;-77
2023/07/10 01:59:09;;;;;;;3.83;2.67;;;26.70;94.40;;;;;;7390027;19;20143;-78
2023/07/10 02:01:35;;;;;;;4.03;2.70;;;26.80;94.20;;;;;;7388286;19;20151;-78
2023/07/10 02:04:01;;;;;;;3.85;2.60;;;26.90;94.10;;;;;;7389339;19;20154;-78
2023/07/10 02:06:27;;;;;;;4.97;3.20;;;26.80;94.00;;;;;;7387277;19;20155;-77
2023/07/10 02:08:53;;;;;;;4.72;3.47;;;26.80;94.30;;;;;;7389309;19;20139;-76
2023/07/10 02:11:19;;;;;;;6.40;2.90;;;26.80;94.60;;;;;;7388200;19;20146;-76
2023/07/10 02:13:45;;;;;;;4.15;2.80;;;26.70;94.60;;;;;;7389580;19;20158;-76
2023/07/10 02:16:13;;;;;;;4.82;2.85;;;26.70;95.20;;;;;;7386047;19;20165;-77
2023/07/10 02:18:39;;;;;;;3.63;2.50;;;26.60;95.60;;;;;;7388705;19;20158;-76
2023/07/10 02:21:05;;;;;;;4.53;2.83;;;26.60;95.70;;;;;;7387774;19;20134;-77
2023/07/10 02:23:31;;;;;;;4.55;2.80;;;26.50;96.10;;;;;;7389803;19;20142;-76
2023/07/10 02:25:57;;;;;;;6.10;3.17;;;26.50;96.40;;;;;;7390146;19;20138;-77
2023/07/10 02:28:22;;;;;;;8.13;3.20;;;26.50;96.80;;;;;;7386497;19;20182;-76
2023/07/10 02:30:49;;;;;;;5.13;3.25;;;26.40;96.90;;;;;;7386933;19;20146;-77
2023/07/10 02:33:14;;;;;;;4.90;3.00;;;26.50;97.20;;;;;;7388720;19;20196;-77
2023/07/10 02:35:40;;;;;;;4.85;3.10;;;26.20;97.80;;;;;;7386612;19;20158;-77
2023/07/10 02:38:07;;;;;;;5.72;2.97;;;26.30;98.10;;;;;;7388641;19;20982;-77
2023/07/10 02:40:34;;;;;;;4.90;2.80;;;26.30;98.40;;;;;;7386632;19;20571;-77
2023/07/10 02:42:59;;;;;;;4.93;2.70;;;26.30;98.70;;;;;;7387699;19;20150;-77
2023/07/10 02:45:26;;;;;;;3.90;2.75;;;26.30;98.80;;;;;;7385745;19;20157;-76
2023/07/10 02:47:52;;;;;;;4.30;2.80;;;26.40;99.20;;;;;;7384488;19;20195;-77
2023/07/10 02:50:18;;;;;;;3.80;2.80;;;26.30;99.70;;;;;;7386630;19;20143;-77
2023/07/10 02:52:44;;;;;;;3.25;2.65;;;26.20;99.90;;;;;;7389098;19;20167;-77
2023/07/10 02:55:10;;;;;;;4.97;3.00;;;26.00;99.90;;;;;;7385594;19;20142;-78
2023/07/10 02:57:36;;;;;;;4.25;3.03;;;25.90;99.90;;;;;;7384572;19;20150;-78
2023/07/10 03:00:03;;;;;;;4.15;3.13;;;25.90;99.90;;;;;;7382080;19;20146;-78
2023/07/10 03:02:29;;;;;;;3.63;2.83;;;26.10;99.90;;;;;;7387755;19;20474;-78
2023/07/10 03:04:55;;;;;;;5.18;3.10;;;26.20;99.90;;;;;;7387436;19;20141;-77
2023/07/10 03:07:20;;;;;;;5.78;2.92;;;26.30;99.90;;;;;;7386959;19;20706;-77
2023/07/10 03:09:46;;;;;;;4.18;2.47;;;26.50;99.90;;;;;;7385635;19;20138;-77
2023/07/10 03:12:12;;;;;;;4.72;2.80;;;26.30;99.90;;;;;;7387462;19;20607;-77
2023/07/10 03:14:37;;;;;;;7.10;3.50;;;26.10;99.90;;;;;;7386211;19;20151;-76
2023/07/10 03:17:04;;;;;;;6.70;3.45;;;26.00;99.90;;;;;;7383384;19;20615;-77
2023/07/10 03:19:34;;;;;;;6.35;3.17;;;25.90;99.90;;;;;;7387537;19;20512;-77
2023/07/10 03:21:59;;;;;;;3.85;3.00;;;26.00;99.90;;;;;;7386413;19;20594;-77
2023/07/10 03:24:25;;;;;;;3.88;2.97;;;26.00;99.90;;;;;;7387580;19;20149;-77
2023/07/10 03:26:51;;;;;;;4.75;2.92;;;26.10;99.90;;;;;;7385290;19;20143;-77
2023/07/10 03:29:17;;;;;;;3.63;2.75;;;26.00;99.90;;;;;;7389029;19;20585;-78
2023/07/10 03:31:43;;;;;;;4.30;3.20;;;25.90;99.90;;;;;;7388314;19;20615;-77
2023/07/10 03:34:12;;;;;;;4.13;3.30;;;26.00;99.90;;;;;;7385887;19;20127;-76
2023/07/10 03:36:38;;;;;;;4.97;3.42;;;26.00;99.90;;;;;;7384871;19;20482;-77
2023/07/10 03:39:05;;;;;;;5.88;3.55;;;26.00;99.90;;;;;;7385700;19;20229;-78
2023/07/10 03:41:32;;;;;;;4.40;3.10;;;26.10;99.90;;;;;;7386936;19;20454;-77
2023/07/10 03:43:58;;;;;;;6.70;3.05;;;26.10;99.90;;;;;;7383966;19;20158;-77
2023/07/10 03:46:24;;;;;;;4.85;3.10;;;26.10;99.90;;;;;;7386723;19;20158;-78
2023/07/10 03:48:51;;;;;;;4.80;3.10;;;26.20;99.90;;;;;;7386366;19;20167;-78
2023/07/10 03:51:17;;;;;;;7.07;3.53;;;26.20;99.90;;;;;;7388106;19;20135;-78
2023/07/10 03:53:43;;;;;;;5.60;3.30;;;26.20;99.90;;;;;;7384499;19;20544;-78
2023/07/10 03:56:09;;;;;;;6.30;3.47;;;26.30;99.90;;;;;;7384540;19;20158;-77
2023/07/10 03:58:45;;;;;;;6.75;3.33;;;26.30;99.90;;;;;;7385555;19;20587;-77
2023/07/10 04:01:11;;;;;;;4.63;2.90;;;26.40;99.90;;;;;;7386874;19;20138;-77
2023/07/10 04:03:39;;;;;;;4.13;3.33;;;26.40;99.90;;;;;;7386248;19;20262;-78
2023/07/10 04:06:07;;;;;;;3.95;3.45;;;26.50;99.90;;;;;;7384345;19;20142;-78
2023/07/10 04:08:38;;;;;;;4.60;3.67;;;26.10;99.90;;;;;;7388139;19;20139;-77
2023/07/10 04:11:07;;;;;;;6.78;3.45;;;26.10;99.90;;;;;;7385410;19;20154;-79
2023/07/10 04:13:33;;;;;;;6.47;3.22;;;26.00;99.90;;;;;;7385877;19;20181;-78
2023/07/10 04:16:01;;;;;;;5.70;3.35;;;26.00;99.90;;;;;;7383816;19;20489;-78
2023/07/10 04:18:29;;;;;;;6.07;3.30;;;26.00;99.90;;;;;;7386003;19;20134;-77
2023/07/10 04:20:56;;;;;;;5.38;3.35;;;26.00;99.90;;;;;;7384977;19;20934;-78
2023/07/10 04:23:22;;;;;;;7.22;3.60;;;26.00;99.90;;;;;;7383716;19;20191;-78
2023/07/10 04:25:48;;;;;;;4.57;3.25;;;26.10;99.90;;;;;;7387669;19;20138;-78
2023/07/10 04:28:13;;;;;;;4.25;3.05;;;26.30;99.90;;;;;;7390434;19;20150;-77
2023/07/10 04:30:39;;;;;;;5.72;3.38;;;26.30;99.90;;;;;;7390934;19;20134;-78
2023/07/10 04:33:08;;;;;;;4.03;3.30;;;26.30;99.90;;;;;;7394201;19;20166;-78
2023/07/10 04:35:34;;;;;;;5.82;3.80;;;26.40;99.90;;;;;;7390966;19;20154;-77
2023/07/10 04:38:00;;;;;;;4.35;2.92;;;26.50;99.90;;;;;;7390396;19;20157;-78
2023/07/10 04:40:26;;;;;;;4.47;3.47;;;26.60;99.90;;;;;;7389310;19;20142;-77
2023/07/10 04:42:53;;;;;;;5.32;3.38;;;26.40;99.90;;;;;;7391054;19;20158;-77
2023/07/10 04:45:19;;;;;;;4.22;3.35;;;26.40;99.90;;;;;;7391747;19;20134;-77
2023/07/10 04:47:44;;;;;;;4.72;2.90;;;26.50;99.90;;;;;;7387189;19;20577;-77
2023/07/10 04:50:10;;;;;;;4.13;3.00;;;26.50;99.90;;;;;;7389550;19;20142;-79
2023/07/10 04:52:36;;;;;;;4.75;2.75;;;26.60;99.90;;;;;;7390504;19;20463;-80
2023/07/10 04:55:02;;;;;;;5.15;3.35;;;26.70;99.90;;;;;;7388516;19;20179;-79
2023/07/10 04:57:28;;;;;;;6.50;3.40;;;26.40;99.90;;;;;;7389340;19;20761;-79
2023/07/10 04:59:54;;;;;;;5.65;3.40;;;26.30;99.90;;;;;;7388082;19;20170;-80
2023/07/10 05:02:20;;;;;;;5.03;3.20;;;26.30;99.90;;;;;;7391197;19;20165;-78
2023/07/10 05:04:46;;;;;;;5.85;3.03;;;26.20;99.90;;;;;;7389312;19;20150;-77
2023/07/10 05:07:11;;;;;;;4.63;3.15;;;26.20;99.90;;;;;;7389854;19;20506;-78
2023/07/10 05:09:37;;;;;;;3.97;3.03;;;26.30;99.90;;;;;;7388488;19;20526;-78
2023/07/10 05:12:04;;;;;;;4.97;3.20;;;26.50;99.90;;;;;;7389536;19;20169;-78
2023/07/10 05:14:29;;;;;;;5.97;3.75;;;26.60;99.90;;;;;;7389763;19;20682;-78
2023/07/10 05:16:55;;;;;;;5.00;2.90;;;26.60;99.90;;;;;;7386189;19;20144;-77
2023/07/10 05:19:21;;;;;;;5.68;3.20;;;26.50;99.90;;;;;;7388724;19;20448;-78
2023/07/10 05:21:47;;;;;;;4.97;3.35;;;26.50;99.90;;;;;;7388808;19;20138;-77
2023/07/10 05:24:13;;;;;;;5.35;3.45;;;26.50;99.90;;;;;;7389445;19;20158;-77
2023/07/10 05:26:39;;;;;;;5.65;3.20;;;26.70;99.90;;;;;;7388026;19;20157;-79
2023/07/10 05:29:05;;;;;;;3.92;3.53;;;26.70;99.90;;;;;;7388998;19;20139;-78
2023/07/10 05:31:30;;;;;;;5.30;3.25;;;26.80;99.90;;;;;;7383240;19;20486;-79
2023/07/10 05:33:56;;;;;;;4.60;3.50;;;26.70;99.90;;;;;;7389639;19;20154;-77
2023/07/10 05:36:22;;;;;;;8.35;3.63;;;26.80;99.90;;;;;;7384303;19;20146;-77
2023/07/10 05:38:48;;;;;;;5.18;3.58;;;26.80;99.90;;;;;;7388731;19;20143;-77
2023/07/10 05:41:18;;;;;;;4.75;3.33;;;26.70;99.90;;;;;;7381529;19;20139;-75
2023/07/10 05:43:45;;;;;;;7.57;3.70;;;26.90;99.90;;;;;;7388572;19;20135;-77
2023/07/10 05:46:12;;;;;;;4.82;3.42;;;27.00;99.90;;;;;;7387291;19;20193;-76
2023/07/10 05:48:38;;;;;;;5.47;3.83;;;27.10;99.90;;;;;;7387065;19;20164;-76
2023/07/10 05:51:05;;;;;;;9.20;3.80;;;27.10;99.90;;;;;;7391279;19;20138;-76
2023/07/10 05:53:33;;;;;;;6.70;3.38;;;27.10;99.90;;;;;;7387852;19;20138;-76
2023/07/10 05:56:00;;;;;;;5.50;3.83;;;27.10;99.90;;;;;;7387142;19;20154;-76
2023/07/10 05:58:28;;;;;;;5.80;3.55;;;27.20;99.90;;;;;;7388437;19;20154;-77
2023/07/10 06:00:59;;;;;;;7.97;4.07;;;27.10;99.90;;;;;;7384438;19;20223;-77
2023/07/10 06:03:25;;;;;;;5.85;3.50;;;27.10;99.90;;;;;;7388293;19;20625;-78
2023/07/10 06:06:00;;;;;;;4.47;3.50;;;27.20;99.90;;;;;;7387312;19;20209;-78
2023/07/10 06:08:27;;;;;;;5.10;3.03;;;27.30;99.90;;;;;;7385880;19;20134;-78
2023/07/10 06:10:53;;;;;;;6.28;3.70;;;27.20;99.90;;;;;;7386641;19;20138;-79
2023/07/10 06:13:19;;;;;;;4.68;3.45;;;27.30;99.90;;;;;;7384620;19;20151;-78
2023/07/10 06:15:48;;;;;;;5.90;3.42;;;27.40;99.90;;;;;;7385710;19;20143;-78
2023/07/10 06:18:15;;;;;;;4.60;3.42;;;27.60;99.90;;;;;;7386408;19;20147;-78
2023/07/10 06:20:41;;;;;;;5.70;3.10;;;28.10;99.90;;;;;;7388042;19;20158;-77
2023/07/10 06:23:09;;;;;;;4.85;3.80;;;28.60;99.90;;;;;;7388171;19;20151;-78
2023/07/10 06:25:40;;;;;;;6.50;4.10;;;29.70;99.90;;;;;;7385889;19;20141;-81
2023/07/10 06:28:07;;;;;;;5.65;4.45;;;31.90;98.70;;;;;;7388054;19;20919;-79
2023/07/10 06:30:32;;;;;;;4.88;3.65;;;34.40;94.50;;;;;;7385909;19;20584;-81
2023/07/10 06:32:58;;;;;;;5.38;4.15;;;34.00;92.90;;;;;;7387504;19;20179;-82
2023/07/10 06:35:24;;;;;;;5.15;3.00;;;32.20;94.00;;;;;;7384753;19;20206;-80
2023/07/10 06:37:50;;;;;;;5.75;3.53;;;32.00;94.80;;;;;;7383308;19;20134;-81
2023/07/10 06:40:16;;;;;;;6.13;2.92;;;31.10;96.10;;;;;;7384133;19;20237;-82
2023/07/10 06:42:42;;;;;;;4.25;3.00;;;30.70;97.50;;;;;;7388494;19;20510;-80
2023/07/10 06:45:10;;;;;;;7.78;3.30;;;31.00;97.00;;;;;;7386359;19;20154;-81
2023/07/10 06:47:42;;;;;;;4.10;3.35;;;32.90;95.40;;;;;;7382084;19;20242;-80
2023/07/10 06:50:09;;;;;;;6.40;3.10;;;35.30;92.30;;;;;;7385991;19;20146;-81
2023/07/10 06:52:40;;;;;;;5.05;3.22;;;36.90;89.20;;;;;;7387801;19;20170;-81
2023/07/10 06:55:08;;;;;;;7.78;3.08;;;37.00;85.50;;;;;;7386345;19;20146;-82
2023/07/10 06:57:34;;;;;;;3.88;2.97;;;36.40;86.80;;;;;;7384568;19;20561;-80
2023/07/10 07:00:00;;;;;;;4.20;3.13;;;36.10;87.70;;;;;;7386777;19;20142;-80
2023/07/10 07:02:26;;;;;;;3.67;2.58;;;36.70;86.20;;;;;;7386879;19;20139;-82
2023/07/10 07:04:52;;;;;;;7.07;2.80;;;36.20;83.70;;;;;;7386636;19;20157;-81
2023/07/10 07:07:18;;;;;;;7.60;3.55;;;34.60;87.50;;;;;;7388623;19;20206;-82
2023/07/10 07:09:43;;;;;;;4.35;3.03;;;32.70;91.20;;;;;;7389361;19;20515;-82
2023/07/10 07:12:10;;;;;;;4.45;2.75;;;32.10;92.20;;;;;;7391053;19;20166;-81
2023/07/10 07:14:36;;;;;;;3.83;3.00;;;31.60;93.80;;;;;;7389076;19;20461;-82
2023/07/10 07:17:04;;;;;;;4.85;2.90;;;31.30;93.90;;;;;;7384273;19;20222;-83
2023/07/10 07:19:30;;;;;;;3.85;2.72;;;30.90;94.80;;;;;;7385742;19;20139;-83
2023/07/10 07:21:56;;;;;;;6.28;3.22;;;30.70;95.60;;;;;;7385644;19;20380;-81
2023/07/10 07:24:22;;;;;;;4.95;3.25;;;30.80;95.60;;;;;;7389361;19;20218;-79
2023/07/10 07:26:47;;;;;;;4.15;2.78;;;30.80;95.50;;;;;;7383995;19;20143;-82
2023/07/10 07:29:13;;;;;;;6.32;4.00;;;30.40;95.90;;;;;;7386523;19;20162;-79
2023/07/10 07:31:39;;;;;;;4.50;3.75;;;30.10;97.10;;;;;;7386598;19;20156;-79
2023/07/10 07:34:05;;;;;;;4.20;2.97;;;29.80;97.80;;;;;;7384248;19;20523;-82
2023/07/10 07:36:34;;;;;;;5.22;2.72;;;29.90;98.20;;;;;;7384348;19;20516;-83
2023/07/10 07:39:04;;;;;;;5.18;2.70;;;30.80;96.90;;;;;;7383701;19;20207;-83
2023/07/10 07:41:34;;;;;;;4.63;2.97;;;30.80;96.60;;;;;;7382493;19;20149;-84
2023/07/10 07:44:01;;;;;;;4.40;2.70;;;31.40;95.90;;;;;;7376787;19;20242;-83
2023/07/10 07:46:28;;;;;;;3.45;2.75;;;31.50;95.30;;;;;;7383178;19;20174;-83
2023/07/10 07:48:53;;;;;;;4.22;2.70;;;31.60;95.50;;;;;;7383663;19;20142;-82
2023/07/10 07:51:19;;;;;;;8.00;2.72;;;31.80;95.20;;;;;;7385256;19;20149;-82
2023/07/10 07:53:45;;;;;;;6.93;3.10;;;32.20;94.90;;;;;;7386351;19;20154;-83
2023/07/10 07:56:11;;;;;;;6.00;2.85;;;32.70;94.20;;;;;;7386111;19;20551;-84
2023/07/10 07:58:37;;;;;;;5.25;2.90;;;33.00;93.70;;;;;;7386163;19;20427;-86
2023/07/10 08:01:03;;;;;;;6.65;3.25;;;33.90;92.30;;;;;;7383820;19;20134;-84
2023/07/10 08:03:30;;;;;;;7.63;2.70;;;33.90;92.40;;;;;;7383652;19;20155;-84
2023/07/10 08:05:56;;;;;;;4.55;2.72;;;34.50;91.20;;;;;;7384378;19;20139;-83
2023/07/10 08:08:22;;;;;;;4.65;2.60;;;34.80;91.50;;;;;;7384843;19;20134;-85
2023/07/10 08:10:50;;;;;;;5.38;2.80;;;34.60;91.10;;;;;;7384291;19;20142;-83
2023/07/10 08:13:18;;;;;;;3.88;3.22;;;33.80;92.30;;;;;;7386988;19;20138;-83
2023/07/10 08:15:44;;;;;;;4.90;3.10;;;33.60;92.30;;;;;;7387779;19;20157;-83
2023/07/10 08:18:10;;;;;;;4.25;2.83;;;33.50;92.90;;;;;;7384018;19;20159;-83
2023/07/10 08:20:36;;;;;;;3.83;2.90;;;34.10;91.90;;;;;;7384189;19;20137;-82
2023/07/10 08:23:03;;;;;;;4.05;2.75;;;34.20;91.40;;;;;;7382045;19;20176;-79
2023/07/10 08:25:29;;;;;;;4.00;2.95;;;33.70;91.50;;;;;;7384266;19;20131;-76
2023/07/10 08:27:58;;;;;;;5.28;3.17;;;33.30;92.30;;;;;;7378918;19;20155;-77
2023/07/10 08:30:24;;;;;;;4.10;3.33;;;32.70;93.20;;;;;;7377998;19;20129;-76
2023/07/10 08:32:50;;;;;;;4.53;2.60;;;32.50;93.60;;;;;;7383175;19;20529;-75
2023/07/10 08:35:16;;;;;;;5.90;3.35;;;32.00;94.40;;;;;;7383240;19;20173;-73
2023/07/10 08:37:42;;;;;;;3.30;3.00;;;31.70;95.10;;;;;;7380807;19;20667;-74
2023/07/10 08:40:29;;;;;;;4.53;3.05;;;31.60;95.70;;;;;;7383622;19;20196;-75
2023/07/10 08:42:55;;;;;;;16.45;12.48;;;32.00;96.00;;;;;;7381082;19;20143;-76
2023/07/10 08:45:35;;;;;;;3.90;2.97;;;32.70;95.00;;;;;;7375657;19;20161;-76
2023/07/10 08:48:19;;;;;;;9.10;2.97;;;32.90;94.00;;;;;;7374080;19;20186;-77
2023/07/10 08:50:47;;;;;;;4.60;2.70;;;32.20;95.10;;;;;;7376535;19;20274;-78
2023/07/10 08:53:19;;;;;;;5.20;3.20;;;31.30;96.60;;;;;;7378708;19;20145;-80
2023/07/10 08:55:56;;;;;;;4.22;2.95;;;31.40;96.70;;;;;;7379687;19;20173;-78
2023/07/10 08:58:29;;;;;;;4.78;2.80;;;31.60;96.60;;;;;;7381112;19;20157;-80
2023/07/10 09:01:02;;;;;;;5.15;2.95;;;32.50;97.10;;;;;;7382248;19;20164;-79
2023/07/10 09:03:41;;;;;;;5.35;4.07;;;32.20;96.00;;;;;;7381332;19;20143;-78
2023/07/10 09:06:18;;;;;;;3.58;2.75;;;32.00;95.80;;;;;;7380064;19;20146;-77
2023/07/10 09:08:47;;;;;;;7.15;3.38;;;31.90;96.30;;;;;;7383861;19;20139;-76
2023/07/10 09:11:13;;;;;;;4.35;3.22;;;31.80;97.20;;;;;;7379153;19;20178;-79
2023/07/10 09:13:39;;;;;;;5.25;3.17;;;31.80;97.20;;;;;;7386738;19;20153;-80
2023/07/10 09:16:17;;;;;;;4.95;3.03;;;31.50;97.80;;;;;;7386614;19;20668;-80
2023/07/10 09:19:03;;;;;;;4.20;3.08;;;31.20;98.40;;;;;;7389737;19;20228;-78
2023/07/10 09:21:36;;;;;;;3.72;2.92;;;30.60;99.30;;;;;;7388721;19;20155;-79
2023/07/10 09:24:04;;;;;;;3.83;3.10;;;30.80;99.40;;;;;;7390300;19;20476;-78
2023/07/10 09:26:39;;;;;;;3.92;3.00;;;30.80;99.80;;;;;;7387685;19;20146;-79
2023/07/10 09:29:11;;;;;;;3.65;3.08;;;30.90;99.90;;;;;;7387109;19;20149;-74
2023/07/10 09:32:02;;;;;;;5.15;3.38;;;30.80;99.90;;;;;;7389031;19;20147;-77
2023/07/10 09:34:32;;;;;;;4.47;2.92;;;31.00;99.90;;;;;;7387379;19;20265;-74
2023/07/10 09:36:59;;;;;;;3.85;3.10;;;30.50;99.90;;;;;;7386092;19;20150;-77
2023/07/10 09:39:30;;;;;;;5.22;3.15;;;30.30;99.90;;;;;;7386742;19;20222;-74
2023/07/10 09:42:01;;;;;;;5.50;4.57;;;30.20;99.90;;;;;;7386447;19;20169;-75
2023/07/10 09:44:36;;;;;;;4.88;3.50;;;30.40;99.90;;;;;;7385808;19;20576;-75
2023/07/10 09:47:11;;;;;;;3.55;3.13;;;30.50;99.90;;;;;;7384985;19;20168;-75
2023/07/10 09:49:44;;;;;;;3.22;2.70;;;30.80;99.90;;;;;;7386780;19;20158;-76
2023/07/10 09:52:15;;;;;;;3.17;2.67;;;30.80;99.90;;;;;;7385259;19;20492;-75
2023/07/10 09:54:41;;;;;;;4.25;3.08;;;30.70;99.90;;;;;;7388843;19;20161;-74
2023/07/10 09:57:17;;;;;;;5.60;3.20;;;31.10;99.90;;;;;;7384259;19;20142;-75
2023/07/10 09:59:54;;;;;;;4.18;2.95;;;31.20;99.90;;;;;;7387472;19;20139;-74
2023/07/10 10:02:24;;;;;;;5.10;2.95;;;31.00;99.90;;;;;;7388127;19;20249;-76
2023/07/10 10:05:10;;;;;;;5.93;3.63;;;31.00;99.90;;;;;;7393313;19;20146;-75
2023/07/10 10:07:41;;;;;;;5.55;3.22;;;31.10;99.90;;;;;;7384290;19;20226;-75
2023/07/10 10:10:21;;;;;;;4.43;3.50;;;30.70;99.90;;;;;;7385927;19;20126;-75
2023/07/10 10:13:28;;;;;;;4.53;3.35;;;30.90;99.90;;;;;;7387086;19;20596;-75
2023/07/10 10:16:16;;;;;;;4.55;3.17;;;30.70;99.90;;;;;;7385475;19;20173;-75
2023/07/10 10:19:03;;;;;;;4.50;3.15;;;30.40;99.90;;;;;;7390218;19;20162;-79
2023/07/10 10:21:36;;;;;;;4.70;3.00;;;30.20;99.90;;;;;;7387963;19;20146;-79
2023/07/10 10:24:07;;;;;;;4.22;3.10;;;30.20;99.90;;;;;;7388202;19;20582;-81
2023/07/10 10:27:02;;;;;;;4.35;3.33;;;30.50;99.90;;;;;;7386749;19;20143;-78
2023/07/10 10:29:50;;;;;;;3.72;3.25;;;30.60;99.90;;;;;;7386218;19;20181;-76
2023/07/10 10:32:23;;;;;;;5.82;3.33;;;30.80;99.90;;;;;;7388661;19;20591;-81
2023/07/10 10:35:08;;;;;;;7.28;3.05;;;30.70;99.90;;;;;;7386892;19;20149;-75
2023/07/10 10:37:52;;;;;;;4.35;3.28;;;30.60;99.90;;;;;;7387116;19;20151;-75
2023/07/10 10:40:27;;;;;;;6.05;3.85;;;30.70;99.90;;;;;;7386340;19;20146;-76
2023/07/10 10:43:09;;;;;;;4.75;3.42;;;30.70;99.90;;;;;;7385350;19;20154;-74
2023/07/10 10:45:42;;;;;;;5.03;3.50;;;30.80;99.90;;;;;;7388661;19;20134;-75
2023/07/10 10:48:24;;;;;;;4.40;3.17;;;30.60;99.90;;;;;;7384735;19;20154;-75
2023/07/10 10:51:13;;;;;;;5.03;4.00;;;30.90;99.90;;;;;;7388258;19;20194;-76
2023/07/10 10:54:00;;;;;;;3.63;3.28;;;30.90;99.90;;;;;;7385524;19;20171;-76
2023/07/10 10:56:32;;;;;;;4.80;3.30;;;30.90;99.90;;;;;;7384668;19;20160;-75
2023/07/10 10:59:16;;;;;;;4.50;3.65;;;31.00;99.90;;;;;;7385399;19;20218;-76
2023/07/10 11:01:48;;;;;;;5.57;3.53;;;31.20;99.90;;;;;;7385456;19;20151;-75
2023/07/10 11:04:34;;;;;;;4.88;3.25;;;31.10;99.90;;;;;;7385271;19;20212;-76
2023/07/10 11:07:10;;;;;;;3.67;2.92;;;31.20;99.90;;;;;;7385103;19;20159;-75
2023/07/10 11:09:54;;;;;;;6.03;3.30;;;31.50;99.90;;;;;;7385977;19;20642;-74
2023/07/10 11:12:23;;;;;;;5.00;3.45;;;31.80;99.40;;;;;;7385720;19;20134;-75
2023/07/10 11:14:55;;;;;;;5.32;3.30;;;31.90;98.50;;;;;;7387335;19;20206;-75
2023/07/10 11:17:21;;;;;;;4.22;3.25;;;31.70;98.90;;;;;;7381340;19;20139;-76
2023/07/10 11:19:48;;;;;;;5.05;3.75;;;31.40;99.20;;;;;;7386684;19;20210;-74
2023/07/10 11:22:31;;;;;;;3.33;3.00;;;31.10;99.30;;;;;;7386343;19;20154;-75
2023/07/10 11:25:02;;;;;;;5.88;3.17;;;31.00;99.40;;;;;;7384596;19;20122;-76
2023/07/10 11:27:34;;;;;;;4.28;3.40;;;31.10;99.40;;;;;;7384193;19;20139;-75
2023/07/10 11:30:11;;;;;;;4.63;3.42;;;31.10;98.90;;;;;;7384881;19;20130;-76
2023/07/10 11:33:01;;;;;;;4.22;3.20;;;31.00;99.00;;;;;;7385195;19;20512;-76
2023/07/10 11:35:30;;;;;;;5.00;3.50;;;31.10;99.30;;;;;;7380234;19;20153;-75
2023/07/10 11:38:01;;;;;;;3.85;2.90;;;31.20;98.90;;;;;;7377288;19;20143;-76
2023/07/10 11:40:27;;;;;;;3.97;3.10;;;31.50;97.80;;;;;;7382553;19;20138;-76
2023/07/10 11:43:15;;;;;;;5.10;3.90;;;31.80;97.30;;;;;;7386530;19;20158;-76
2023/07/10 11:45:51;;;;;;;3.80;2.97;;;31.60;96.90;;;;;;7382196;19;20123;-76
2023/07/10 11:48:40;;;;;;;7.10;3.60;;;31.30;97.10;;;;;;7386963;19;20205;-76
2023/07/10 11:51:29;;;;;;;4.10;3.40;;;31.50;96.90;;;;;;7385215;19;20158;-75
2023/07/10 11:54:33;;;;;;;4.65;3.38;;;31.60;96.10;;;;;;7386048;19;20135;-77
2023/07/10 11:57:15;;;;;;;6.10;3.00;;;31.80;95.60;;;;;;7379774;19;20168;-75
2023/07/10 11:59:54;;;;;;;5.00;4.03;;;32.20;95.30;;;;;;7383760;19;20150;-77
2023/07/10 12:02:39;;;;;;;3.20;2.88;;;32.30;93.90;;;;;;7386618;19;20138;-75
2023/07/10 12:05:46;;;;;;;5.35;4.30;;;32.50;93.60;;;;;;7383849;19;20138;-77
2023/07/10 12:08:14;;;;;;;4.22;3.28;;;32.70;92.20;;;;;;7384013;19;20649;-78
2023/07/10 12:10:46;;;;;;;4.07;2.85;;;32.30;91.50;;;;;;7379453;19;20274;-77
2023/07/10 12:13:21;;;;;;;3.55;3.15;;;32.20;91.30;;;;;;7382227;19;20146;-76
2023/07/10 12:15:48;;;;;;;4.53;2.67;;;32.10;91.70;;;;;;7381485;19;20142;-76
2023/07/10 12:18:18;;;;;;;4.32;3.17;;;32.00;91.70;;;;;;7379332;19;20587;-78
2023/07/10 12:20:52;;;;;;;3.35;2.92;;;32.00;90.50;;;;;;7383881;19;20135;-77
2023/07/10 12:23:18;;;;;;;4.40;3.22;;;31.90;90.90;;;;;;7384312;19;20482;-76
2023/07/10 12:25:49;;;;;;;4.28;2.65;;;32.00;90.00;;;;;;7383441;19;20164;-75
2023/07/10 12:28:17;;;;;;;4.50;3.05;;;32.10;88.80;;;;;;7384419;19;20453;-75
2023/07/10 12:30:47;;;;;;;6.47;2.60;;;32.00;89.00;;;;;;7384301;19;20147;-77
2023/07/10 12:33:25;;;;;;;3.35;2.70;;;32.00;88.30;;;;;;7384765;19;20154;-77
2023/07/10 12:35:51;;;;;;;6.55;3.13;;;32.00;88.40;;;;;;7381307;19;20165;-77
2023/07/10 12:38:17;;;;;;;3.50;2.70;;;32.10;88.10;;;;;;7381039;19;20215;-76
2023/07/10 12:40:43;;;;;;;6.05;5.30;;;32.30;87.20;;;;;;7382924;19;20760;-75
2023/07/10 12:43:21;;;;;;;3.72;3.30;;;32.40;86.70;;;;;;7384274;19;20142;-75
2023/07/10 12:45:58;;;;;;;5.45;3.00;;;32.20;85.40;;;;;;7382482;19;20214;-75
2023/07/10 12:48:29;;;;;;;3.50;2.75;;;32.50;85.20;;;;;;7389906;19;20150;-75
2023/07/10 12:50:59;;;;;;;3.60;2.75;;;32.50;84.00;;;;;;7391332;19;20139;-76
2023/07/10 12:53:30;;;;;;;6.13;3.25;;;32.70;84.30;;;;;;7389503;19;20150;-75
2023/07/10 12:56:17;;;;;;;5.20;2.58;;;32.70;81.90;;;;;;7389428;19;20167;-77
2023/07/10 12:58:47;;;;;;;4.57;2.45;;;32.70;82.70;;;;;;7390086;19;20824;-77
2023/07/10 13:01:32;;;;;;;3.53;2.55;;;32.90;81.80;;;;;;7388743;19;20229;-80
2023/07/10 13:04:04;;;;;;;4.70;2.80;;;32.90;81.90;;;;;;7388922;19;20250;-78